sensor_id;sensor_type;location;lat;lon;timestamp;pressure;altitude;pressure_sealevel;temperature;humidity
78373;BME280;67656;52.074;4.758;2023-04-25T00:04:36;101176.66;;;4.50;100.00
78373;BME280;67656;52.074;4.758;2023-04-25T00:09:37;101174.88;;;4.30;100.00
78373;BME280;67656;52.074;4.758;2023-04-25T00:14:37;101181.78;;;4.16;100.00
78373;BME280;67656;52.074;4.758;2023-04-25T00:19:37;101204.38;;;4.05;100.00
78373;BME280;67656;52.074;4.758;2023-04-25T00:24:38;101192.91;;;3.79;100.00
78373;BME280;67656;52.074;4.758;2023-04-25T00:29:38;101205.88;;;3.62;100.00
78373;BME280;67656;52.074;4.758;2023-04-25T00:34:38;101205.84;;;3.58;100.00
78373;BME280;67656;52.074;4.758;2023-04-25T00:39:39;101207.59;;;3.59;100.00
78373;BME280;67656;52.074;4.758;2023-04-25T00:44:39;101196.31;;;3.63;100.00
78373;BME280;67656;52.074;4.758;2023-04-25T00:49:39;101204.19;;;3.71;100.00
78373;BME280;67656;52.074;4.758;2023-04-25T00:54:40;101190.28;;;3.75;100.00
78373;BME280;67656;52.074;4.758;2023-04-25T00:59:45;101209.44;;;3.71;100.00
78373;BME280;67656;52.074;4.758;2023-04-25T01:04:47;101219.00;;;3.72;100.00
78373;BME280;67656;52.074;4.758;2023-04-25T01:09:48;101216.31;;;3.62;100.00
78373;BME280;67656;52.074;4.758;2023-04-25T01:14:48;101219.75;;;3.55;100.00
78373;BME280;67656;52.074;4.758;2023-04-25T01:19:49;101210.88;;;3.34;100.00
78373;BME280;67656;52.074;4.758;2023-04-25T01:24:50;101222.03;;;3.13;100.00
78373;BME280;67656;52.074;4.758;2023-04-25T01:29:51;101226.44;;;3.19;100.00
78373;BME280;67656;52.074;4.758;2023-04-25T01:34:51;101235.03;;;3.12;100.00
78373;BME280;67656;52.074;4.758;2023-04-25T01:39:53;101231.53;;;3.06;100.00
78373;BME280;67656;52.074;4.758;2023-04-25T01:44:54;101232.25;;;2.90;100.00
78373;BME280;67656;52.074;4.758;2023-04-25T01:49:54;101233.88;;;2.77;100.00
78373;BME280;67656;52.074;4.758;2023-04-25T01:54:57;101241.59;;;2.69;100.00
78373;BME280;67656;52.074;4.758;2023-04-25T02:00:00;101241.38;;;2.51;100.00
78373;BME280;67656;52.074;4.758;2023-04-25T02:05:12;101247.28;;;2.37;100.00
78373;BME280;67656;52.074;4.758;2023-04-25T02:10:14;101255.16;;;2.42;100.00
78373;BME280;67656;52.074;4.758;2023-04-25T02:15:27;101255.22;;;2.46;100.00
78373;BME280;67656;52.074;4.758;2023-04-25T02:20:32;101252.88;;;2.71;100.00
78373;BME280;67656;52.074;4.758;2023-04-25T02:25:32;101253.06;;;2.85;100.00
78373;BME280;67656;52.074;4.758;2023-04-25T02:30:33;101247.03;;;2.91;100.00
78373;BME280;67656;52.074;4.758;2023-04-25T02:35:33;101256.69;;;3.03;100.00
78373;BME280;67656;52.074;4.758;2023-04-25T02:40:34;101247.19;;;3.10;100.00
78373;BME280;67656;52.074;4.758;2023-04-25T02:45:34;101253.34;;;3.15;100.00
78373;BME280;67656;52.074;4.758;2023-04-25T02:50:34;101256.94;;;3.31;100.00
78373;BME280;67656;52.074;4.758;2023-04-25T02:55:35;101259.56;;;3.29;100.00
78373;BME280;67656;52.074;4.758;2023-04-25T03:00:37;101249.16;;;3.32;100.00
78373;BME280;67656;52.074;4.758;2023-04-25T03:05:37;101257.03;;;3.37;100.00
78373;BME280;67656;52.074;4.758;2023-04-25T03:10:38;101261.38;;;3.40;100.00
78373;BME280;67656;52.074;4.758;2023-04-25T03:15:41;101266.16;;;3.98;100.00
78373;BME280;67656;52.074;4.758;2023-04-25T03:20:42;101255.03;;;4.35;100.00
78373;BME280;67656;52.074;4.758;2023-04-25T03:25:43;101259.38;;;4.34;100.00
78373;BME280;67656;52.074;4.758;2023-04-25T03:30:43;101256.78;;;4.39;100.00
78373;BME280;67656;52.074;4.758;2023-04-25T03:35:44;101252.41;;;4.36;100.00
78373;BME280;67656;52.074;4.758;2023-04-25T03:40:45;101254.97;;;4.19;100.00
78373;BME280;67656;52.074;4.758;2023-04-25T03:46:00;101266.19;;;4.01;100.00
78373;BME280;67656;52.074;4.758;2023-04-25T03:51:00;101266.09;;;3.90;100.00
78373;BME280;67656;52.074;4.758;2023-04-25T03:56:02;101263.41;;;3.76;100.00
78373;BME280;67656;52.074;4.758;2023-04-25T04:01:05;101270.31;;;3.73;100.00
78373;BME280;67656;52.074;4.758;2023-04-25T04:06:07;101273.75;;;3.64;100.00
78373;BME280;67656;52.074;4.758;2023-04-25T04:11:11;101279.81;;;3.60;100.00
78373;BME280;67656;52.074;4.758;2023-04-25T04:16:11;101292.75;;;3.49;100.00
78373;BME280;67656;52.074;4.758;2023-04-25T04:21:14;101299.59;;;3.31;100.00
78373;BME280;67656;52.074;4.758;2023-04-25T04:26:15;101315.13;;;3.19;100.00
78373;BME280;67656;52.074;4.758;2023-04-25T04:31:43;101323.00;;;3.25;100.00
78373;BME280;67656;52.074;4.758;2023-04-25T04:36:45;101330.84;;;3.30;100.00
78373;BME280;67656;52.074;4.758;2023-04-25T04:41:45;101326.50;;;3.27;100.00
78373;BME280;67656;52.074;4.758;2023-04-25T04:47:01;101335.25;;;3.34;100.00
78373;BME280;67656;52.074;4.758;2023-04-25T04:52:08;101329.28;;;3.46;100.00
78373;BME280;67656;52.074;4.758;2023-04-25T04:57:26;101325.88;;;3.53;100.00
78373;BME280;67656;52.074;4.758;2023-04-25T05:02:34;101330.34;;;3.66;100.00
78373;BME280;67656;52.074;4.758;2023-04-25T05:07:45;101331.31;;;3.81;100.00
78373;BME280;67656;52.074;4.758;2023-04-25T05:13:24;101336.66;;;3.96;100.00
78373;BME280;67656;52.074;4.758;2023-04-25T05:18:24;101345.41;;;4.05;100.00
78373;BME280;67656;52.074;4.758;2023-04-25T05:23:39;101348.94;;;4.13;100.00
78373;BME280;67656;52.074;4.758;2023-04-25T05:28:59;101361.31;;;4.39;100.00
78373;BME280;67656;52.074;4.758;2023-04-25T05:34:28;101370.13;;;4.56;100.00
78373;BME280;67656;52.074;4.758;2023-04-25T05:39:35;101379.75;;;4.64;100.00
78373;BME280;67656;52.074;4.758;2023-04-25T05:44:49;101388.44;;;4.59;100.00
78373;BME280;67656;52.074;4.758;2023-04-25T05:50:10;101404.00;;;4.39;100.00
78373;BME280;67656;52.074;4.758;2023-04-25T05:55:43;101405.69;;;4.28;100.00
78373;BME280;67656;52.074;4.758;2023-04-25T06:00:54;101415.25;;;4.27;100.00
78373;BME280;67656;52.074;4.758;2023-04-25T06:05:54;101427.63;;;4.53;100.00
78373;BME280;67656;52.074;4.758;2023-04-25T06:10:55;101429.44;;;4.67;100.00
78373;BME280;67656;52.074;4.758;2023-04-25T06:15:57;101445.06;;;4.54;100.00
78373;BME280;67656;52.074;4.758;2023-04-25T06:20:57;101434.34;;;4.23;100.00
78373;BME280;67656;52.074;4.758;2023-04-25T06:25:58;101445.66;;;4.19;100.00
78373;BME280;67656;52.074;4.758;2023-04-25T06:31:00;101451.84;;;4.30;100.00
78373;BME280;67656;52.074;4.758;2023-04-25T06:36:01;101456.31;;;4.45;100.00
78373;BME280;67656;52.074;4.758;2023-04-25T06:41:02;101465.19;;;4.69;100.00
78373;BME280;67656;52.074;4.758;2023-04-25T06:46:06;101471.44;;;4.95;100.00
78373;BME280;67656;52.074;4.758;2023-04-25T06:51:13;101480.16;;;5.00;100.00
78373;BME280;67656;52.074;4.758;2023-04-25T06:56:14;101484.53;;;5.01;100.00
78373;BME280;67656;52.074;4.758;2023-04-25T07:01:29;101477.75;;;5.49;100.00
78373;BME280;67656;52.074;4.758;2023-04-25T07:06:30;101474.47;;;6.17;100.00
78373;BME280;67656;52.074;4.758;2023-04-25T07:11:31;101459.22;;;7.54;100.00
78373;BME280;67656;52.074;4.758;2023-04-25T07:16:31;101457.00;;;8.24;100.00
78373;BME280;67656;52.074;4.758;2023-04-25T07:21:33;101460.41;;;9.86;100.00
78373;BME280;67656;52.074;4.758;2023-04-25T07:26:36;101468.88;;;8.69;100.00
78373;BME280;67656;52.074;4.758;2023-04-25T07:31:55;101465.25;;;9.54;100.00
78373;BME280;67656;52.074;4.758;2023-04-25T07:36:56;101473.72;;;10.84;100.00
78373;BME280;67656;52.074;4.758;2023-04-25T07:41:59;101467.44;;;10.91;100.00
78373;BME280;67656;52.074;4.758;2023-04-25T07:47:03;101469.41;;;10.79;100.00
78373;BME280;67656;52.074;4.758;2023-04-25T07:52:05;101470.16;;;10.38;100.00
78373;BME280;67656;52.074;4.758;2023-04-25T07:57:06;101467.53;;;10.34;100.00
78373;BME280;67656;52.074;4.758;2023-04-25T08:02:07;101479.56;;;11.02;99.56
78373;BME280;67656;52.074;4.758;2023-04-25T08:07:08;101473.66;;;11.33;83.77
78373;BME280;67656;52.074;4.758;2023-04-25T08:12:28;101492.47;;;8.80;100.00
78373;BME280;67656;52.074;4.758;2023-04-25T08:17:30;101503.75;;;7.79;100.00
78373;BME280;67656;52.074;4.758;2023-04-25T08:22:31;101516.56;;;8.25;100.00
78373;BME280;67656;52.074;4.758;2023-04-25T08:27:47;101518.59;;;9.73;100.00
78373;BME280;67656;52.074;4.758;2023-04-25T08:32:49;101518.28;;;10.53;87.94
78373;BME280;67656;52.074;4.758;2023-04-25T08:38:08;101520.28;;;10.37;90.96
78373;BME280;67656;52.074;4.758;2023-04-25T08:43:13;101532.66;;;8.99;100.00
78373;BME280;67656;52.074;4.758;2023-04-25T08:48:16;101549.56;;;8.73;100.00
78373;BME280;67656;52.074;4.758;2023-04-25T08:53:27;101556.88;;;8.27;100.00
78373;BME280;67656;52.074;4.758;2023-04-25T08:58:28;101579.00;;;7.98;100.00
78373;BME280;67656;52.074;4.758;2023-04-25T09:03:29;101588.00;;;7.40;100.00
78373;BME280;67656;52.074;4.758;2023-04-25T09:08:30;101599.34;;;7.44;100.00
78373;BME280;67656;52.074;4.758;2023-04-25T09:13:31;101603.31;;;8.32;100.00
78373;BME280;67656;52.074;4.758;2023-04-25T09:18:57;101629.91;;;7.73;100.00
78373;BME280;67656;52.074;4.758;2023-04-25T09:23:58;101643.13;;;7.42;100.00
78373;BME280;67656;52.074;4.758;2023-04-25T09:29:06;101659.72;;;7.64;100.00
78373;BME280;67656;52.074;4.758;2023-04-25T09:34:07;101655.44;;;7.04;100.00
78373;BME280;67656;52.074;4.758;2023-04-25T09:39:16;101651.88;;;7.41;100.00
78373;BME280;67656;52.074;4.758;2023-04-25T09:44:23;101659.16;;;8.80;100.00
78373;BME280;67656;52.074;4.758;2023-04-25T09:49:28;101661.94;;;9.61;100.00
78373;BME280;67656;52.074;4.758;2023-04-25T09:54:37;101659.28;;;9.63;100.00
78373;BME280;67656;52.074;4.758;2023-04-25T10:04:54;101656.00;;;10.80;100.00
78373;BME280;67656;52.074;4.758;2023-04-25T10:10:00;101661.47;;;10.67;100.00
78373;BME280;67656;52.074;4.758;2023-04-25T10:15:03;101657.66;;;10.87;99.78
78373;BME280;67656;52.074;4.758;2023-04-25T10:20:04;101665.38;;;11.51;90.71
78373;BME280;67656;52.074;4.758;2023-04-25T10:25:07;101657.34;;;11.54;79.21
78373;BME280;67656;52.074;4.758;2023-04-25T10:30:10;101659.81;;;12.87;72.48
78373;BME280;67656;52.074;4.758;2023-04-25T10:35:14;101661.81;;;11.02;88.12
78373;BME280;67656;52.074;4.758;2023-04-25T10:40:21;101673.81;;;9.96;100.00
78373;BME280;67656;52.074;4.758;2023-04-25T10:45:22;101663.91;;;9.41;100.00
78373;BME280;67656;52.074;4.758;2023-04-25T10:50:37;101669.97;;;9.50;100.00
78373;BME280;67656;52.074;4.758;2023-04-25T10:55:52;101683.09;;;8.30;100.00
78373;BME280;67656;52.074;4.758;2023-04-25T11:00:56;101687.59;;;9.44;100.00
78373;BME280;67656;52.074;4.758;2023-04-25T11:05:59;101680.38;;;9.63;100.00
78373;BME280;67656;52.074;4.758;2023-04-25T11:11:01;101679.59;;;10.29;100.00
78373;BME280;67656;52.074;4.758;2023-04-25T11:16:02;101681.13;;;10.48;100.00
78373;BME280;67656;52.074;4.758;2023-04-25T11:21:15;101680.03;;;9.91;100.00
78373;BME280;67656;52.074;4.758;2023-04-25T11:27:02;101673.72;;;10.71;100.00
78373;BME280;67656;52.074;4.758;2023-04-25T11:32:14;101670.09;;;10.16;95.31
78373;BME280;67656;52.074;4.758;2023-04-25T11:37:14;101685.44;;;9.81;83.32
78373;BME280;67656;52.074;4.758;2023-04-25T11:42:15;101684.28;;;9.20;88.79
78373;BME280;67656;52.074;4.758;2023-04-25T11:47:18;101686.22;;;9.90;91.78
78373;BME280;67656;52.074;4.758;2023-04-25T11:52:18;101693.28;;;9.88;96.95
78373;BME280;67656;52.074;4.758;2023-04-25T11:57:19;101698.78;;;9.66;93.26
78373;BME280;67656;52.074;4.758;2023-04-25T12:02:25;101700.69;;;10.94;77.14
78373;BME280;67656;52.074;4.758;2023-04-25T12:07:29;101707.53;;;11.05;67.62
78373;BME280;67656;52.074;4.758;2023-04-25T12:12:34;101709.53;;;11.43;71.95
78373;BME280;67656;52.074;4.758;2023-04-25T12:17:34;101709.84;;;9.99;73.79
78373;BME280;67656;52.074;4.758;2023-04-25T12:22:35;101702.25;;;11.57;67.76
78373;BME280;67656;52.074;4.758;2023-04-25T12:27:35;101717.69;;;10.07;81.68
78373;BME280;67656;52.074;4.758;2023-04-25T12:32:36;101712.56;;;8.98;100.00
78373;BME280;67656;52.074;4.758;2023-04-25T12:37:36;101718.91;;;9.76;86.41
78373;BME280;67656;52.074;4.758;2023-04-25T12:42:37;101734.91;;;10.37;95.77
78373;BME280;67656;52.074;4.758;2023-04-25T12:47:37;101731.41;;;10.35;91.21
78373;BME280;67656;52.074;4.758;2023-04-25T12:52:37;101753.56;;;9.31;95.34
78373;BME280;67656;52.074;4.758;2023-04-25T12:57:38;101736.44;;;9.77;96.83
78373;BME280;67656;52.074;4.758;2023-04-25T13:02:38;101738.28;;;11.10;86.10
78373;BME280;67656;52.074;4.758;2023-04-25T13:07:39;101748.41;;;10.09;84.68
78373;BME280;67656;52.074;4.758;2023-04-25T13:12:39;101739.88;;;10.62;80.11
78373;BME280;67656;52.074;4.758;2023-04-25T13:17:42;101750.88;;;10.94;87.30
78373;BME280;67656;52.074;4.758;2023-04-25T13:22:42;101769.72;;;8.75;100.00
78373;BME280;67656;52.074;4.758;2023-04-25T13:27:43;101791.97;;;7.36;100.00
78373;BME280;67656;52.074;4.758;2023-04-25T13:32:43;101800.59;;;6.80;100.00
78373;BME280;67656;52.074;4.758;2023-04-25T13:37:44;101800.63;;;6.87;100.00
78373;BME280;67656;52.074;4.758;2023-04-25T13:42:44;101787.59;;;7.48;100.00
78373;BME280;67656;52.074;4.758;2023-04-25T13:47:44;101790.00;;;8.59;100.00
78373;BME280;67656;52.074;4.758;2023-04-25T13:52:45;101770.44;;;9.04;100.00
78373;BME280;67656;52.074;4.758;2023-04-25T13:57:45;101778.78;;;9.62;100.00
78373;BME280;67656;52.074;4.758;2023-04-25T14:02:45;101780.00;;;9.19;100.00
78373;BME280;67656;52.074;4.758;2023-04-25T14:07:46;101793.38;;;8.86;100.00
78373;BME280;67656;52.074;4.758;2023-04-25T14:12:46;101773.28;;;9.87;100.00
78373;BME280;67656;52.074;4.758;2023-04-25T14:17:46;101787.50;;;9.67;100.00
78373;BME280;67656;52.074;4.758;2023-04-25T14:22:47;101787.81;;;9.30;100.00
78373;BME280;67656;52.074;4.758;2023-04-25T14:27:47;101783.28;;;10.36;94.23
78373;BME280;67656;52.074;4.758;2023-04-25T14:32:48;101784.00;;;9.65;93.49
78373;BME280;67656;52.074;4.758;2023-04-25T14:37:49;101793.47;;;8.68;100.00
78373;BME280;67656;52.074;4.758;2023-04-25T14:42:49;101785.41;;;8.96;89.10
78373;BME280;67656;52.074;4.758;2023-04-25T14:47:52;101793.81;;;9.46;90.33
78373;BME280;67656;52.074;4.758;2023-04-25T14:52:54;101780.66;;;9.47;95.51
78373;BME280;67656;52.074;4.758;2023-04-25T14:57:57;101777.31;;;10.19;85.73
78373;BME280;67656;52.074;4.758;2023-04-25T15:03:05;101800.81;;;9.50;89.23
78373;BME280;67656;52.074;4.758;2023-04-25T15:08:06;101798.84;;;8.26;94.93
78373;BME280;67656;52.074;4.758;2023-04-25T15:13:08;101802.88;;;9.07;95.37
78373;BME280;67656;52.074;4.758;2023-04-25T15:18:09;101795.06;;;9.00;93.23
78373;BME280;67656;52.074;4.758;2023-04-25T15:23:09;101802.44;;;9.68;100.00
78373;BME280;67656;52.074;4.758;2023-04-25T15:28:09;101815.81;;;9.40;100.00
78373;BME280;67656;52.074;4.758;2023-04-25T15:33:10;101816.97;;;9.03;100.00
78373;BME280;67656;52.074;4.758;2023-04-25T15:38:10;101826.78;;;8.75;100.00
78373;BME280;67656;52.074;4.758;2023-04-25T15:48:21;101815.53;;;8.23;100.00
78373;BME280;67656;52.074;4.758;2023-04-25T15:53:21;101814.47;;;8.77;100.00
78373;BME280;67656;52.074;4.758;2023-04-25T15:58:22;101820.75;;;8.36;100.00
78373;BME280;67656;52.074;4.758;2023-04-25T16:03:22;101830.41;;;8.27;100.00
78373;BME280;67656;52.074;4.758;2023-04-25T16:08:22;101840.69;;;8.96;100.00
78373;BME280;67656;52.074;4.758;2023-04-25T16:13:23;101834.81;;;8.18;100.00
78373;BME280;67656;52.074;4.758;2023-04-25T16:18:23;101848.88;;;7.84;100.00
78373;BME280;67656;52.074;4.758;2023-04-25T16:23:23;101850.59;;;7.40;100.00
78373;BME280;67656;52.074;4.758;2023-04-25T16:28:24;101847.97;;;7.35;100.00
78373;BME280;67656;52.074;4.758;2023-04-25T16:33:24;101851.47;;;8.10;100.00
78373;BME280;67656;52.074;4.758;2023-04-25T16:38:25;101840.91;;;8.49;100.00
78373;BME280;67656;52.074;4.758;2023-04-25T16:43:25;101862.00;;;8.01;100.00
78373;BME280;67656;52.074;4.758;2023-04-25T16:48:25;101865.50;;;7.58;100.00
78373;BME280;67656;52.074;4.758;2023-04-25T16:53:28;101867.28;;;7.81;100.00
78373;BME280;67656;52.074;4.758;2023-04-25T16:58:28;101861.13;;;7.40;100.00
78373;BME280;67656;52.074;4.758;2023-04-25T17:03:29;101866.34;;;7.31;100.00
78373;BME280;67656;52.074;4.758;2023-04-25T17:08:29;101863.72;;;7.42;100.00
78373;BME280;67656;52.074;4.758;2023-04-25T17:13:33;101860.25;;;7.71;100.00
78373;BME280;67656;52.074;4.758;2023-04-25T17:18:33;101866.38;;;7.63;100.00
78373;BME280;67656;52.074;4.758;2023-04-25T17:23:34;101873.38;;;7.52;100.00
78373;BME280;67656;52.074;4.758;2023-04-25T17:28:34;101869.91;;;7.62;100.00
78373;BME280;67656;52.074;4.758;2023-04-25T17:33:34;101870.75;;;7.64;100.00
78373;BME280;67656;52.074;4.758;2023-04-25T17:38:36;101883.03;;;7.81;100.00
78373;BME280;67656;52.074;4.758;2023-04-25T17:43:36;101877.78;;;7.81;100.00
78373;BME280;67656;52.074;4.758;2023-04-25T17:48:39;101875.13;;;7.39;100.00
78373;BME280;67656;52.074;4.758;2023-04-25T17:53:39;101893.44;;;7.10;100.00
78373;BME280;67656;52.074;4.758;2023-04-25T17:58:40;101893.28;;;6.79;100.00
78373;BME280;67656;52.074;4.758;2023-04-25T18:03:42;101885.31;;;6.52;100.00
78373;BME280;67656;52.074;4.758;2023-04-25T18:08:43;101899.22;;;6.39;100.00
78373;BME280;67656;52.074;4.758;2023-04-25T18:13:43;101899.94;;;6.18;100.00
78373;BME280;67656;52.074;4.758;2023-04-25T18:18:45;101906.84;;;6.06;100.00
78373;BME280;67656;52.074;4.758;2023-04-25T18:23:46;101911.00;;;5.86;100.00
78373;BME280;67656;52.074;4.758;2023-04-25T18:28:46;101917.94;;;5.82;100.00
78373;BME280;67656;52.074;4.758;2023-04-25T18:33:47;101915.22;;;5.68;100.00
78373;BME280;67656;52.074;4.758;2023-04-25T18:38:47;101923.84;;;5.58;100.00
78373;BME280;67656;52.074;4.758;2023-04-25T18:43:47;101929.84;;;5.49;100.00
78373;BME280;67656;52.074;4.758;2023-04-25T18:48:48;101929.84;;;5.50;100.00
78373;BME280;67656;52.074;4.758;2023-04-25T18:53:48;101933.16;;;5.32;100.00
78373;BME280;67656;52.074;4.758;2023-04-25T18:58:49;101936.53;;;5.20;100.00
78373;BME280;67656;52.074;4.758;2023-04-25T19:03:50;101933.75;;;5.10;100.00
78373;BME280;67656;52.074;4.758;2023-04-25T19:08:50;101929.28;;;4.99;100.00
78373;BME280;67656;52.074;4.758;2023-04-25T19:13:51;101943.13;;;4.90;100.00
78373;BME280;67656;52.074;4.758;2023-04-25T19:18:53;101949.00;;;4.74;100.00
78373;BME280;67656;52.074;4.758;2023-04-25T19:23:54;101948.81;;;4.61;100.00
78373;BME280;67656;52.074;4.758;2023-04-25T19:29:09;101952.09;;;4.48;100.00
78373;BME280;67656;52.074;4.758;2023-04-25T19:34:10;101957.13;;;4.36;100.00
78373;BME280;67656;52.074;4.758;2023-04-25T19:39:11;101956.09;;;4.24;100.00
78373;BME280;67656;52.074;4.758;2023-04-25T19:44:11;101963.94;;;4.24;100.00
78373;BME280;67656;52.074;4.758;2023-04-25T19:49:12;101966.81;;;4.40;100.00
78373;BME280;67656;52.074;4.758;2023-04-25T19:54:12;101970.63;;;4.62;100.00
78373;BME280;67656;52.074;4.758;2023-04-25T19:59:12;101972.41;;;4.63;100.00
78373;BME280;67656;52.074;4.758;2023-04-25T20:04:16;101974.97;;;4.61;100.00
78373;BME280;67656;52.074;4.758;2023-04-25T20:09:17;101974.78;;;4.49;100.00
78373;BME280;67656;52.074;4.758;2023-04-25T20:14:18;101982.59;;;4.48;100.00
78373;BME280;67656;52.074;4.758;2023-04-25T20:19:18;101972.28;;;4.55;100.00
78373;BME280;67656;52.074;4.758;2023-04-25T20:24:18;101977.44;;;4.52;100.00
78373;BME280;67656;52.074;4.758;2023-04-25T20:29:19;101975.56;;;4.42;100.00
78373;BME280;67656;52.074;4.758;2023-04-25T20:34:20;101987.22;;;4.09;100.00
78373;BME280;67656;52.074;4.758;2023-04-25T20:39:20;101987.66;;;3.84;100.00
78373;BME280;67656;52.074;4.758;2023-04-25T20:44:21;101990.25;;;3.83;100.00
78373;BME280;67656;52.074;4.758;2023-04-25T20:49:23;101986.28;;;3.58;100.00
78373;BME280;67656;52.074;4.758;2023-04-25T20:54:23;101970.59;;;3.58;100.00
78373;BME280;67656;52.074;4.758;2023-04-25T20:59:25;101978.13;;;3.42;100.00
78373;BME280;67656;52.074;4.758;2023-04-25T21:04:25;101977.97;;;3.34;100.00
78373;BME280;67656;52.074;4.758;2023-04-25T21:09:26;101982.31;;;3.32;100.00
78373;BME280;67656;52.074;4.758;2023-04-25T21:14:26;101987.00;;;3.50;100.00
78373;BME280;67656;52.074;4.758;2023-04-25T21:19:26;101985.34;;;3.54;100.00
78373;BME280;67656;52.074;4.758;2023-04-25T21:24:27;101982.47;;;3.40;100.00
78373;BME280;67656;52.074;4.758;2023-04-25T21:29:27;101987.28;;;3.20;100.00
78373;BME280;67656;52.074;4.758;2023-04-25T21:34:27;101980.81;;;3.02;100.00
78373;BME280;67656;52.074;4.758;2023-04-25T21:39:28;101991.03;;;2.93;100.00
78373;BME280;67656;52.074;4.758;2023-04-25T21:44:28;101991.56;;;2.78;100.00
78373;BME280;67656;52.074;4.758;2023-04-25T21:49:29;101999.91;;;2.63;100.00
78373;BME280;67656;52.074;4.758;2023-04-25T21:54:29;101999.53;;;2.46;100.00
78373;BME280;67656;52.074;4.758;2023-04-25T21:59:30;102010.06;;;2.15;100.00
78373;BME280;67656;52.074;4.758;2023-04-25T22:04:30;102012.03;;;1.91;100.00
78373;BME280;67656;52.074;4.758;2023-04-25T22:09:30;102014.94;;;2.03;100.00
78373;BME280;67656;52.074;4.758;2023-04-25T22:14:31;102021.00;;;2.02;100.00
78373;BME280;67656;52.074;4.758;2023-04-25T22:19:32;102023.69;;;2.05;100.00
78373;BME280;67656;52.074;4.758;2023-04-25T22:24:32;102016.63;;;2.01;100.00
78373;BME280;67656;52.074;4.758;2023-04-25T22:29:32;102024.13;;;1.90;100.00
78373;BME280;67656;52.074;4.758;2023-04-25T22:34:33;102030.16;;;1.88;100.00
78373;BME280;67656;52.074;4.758;2023-04-25T22:39:33;102032.00;;;1.92;100.00
78373;BME280;67656;52.074;4.758;2023-04-25T22:44:33;102030.66;;;1.74;100.00
78373;BME280;67656;52.074;4.758;2023-04-25T22:49:34;102035.31;;;1.54;100.00
78373;BME280;67656;52.074;4.758;2023-04-25T22:54:34;102028.38;;;1.24;100.00
78373;BME280;67656;52.074;4.758;2023-04-25T22:59:35;102033.03;;;1.34;100.00
78373;BME280;67656;52.074;4.758;2023-04-25T23:04:36;102027.84;;;1.36;100.00
78373;BME280;67656;52.074;4.758;2023-04-25T23:09:36;102031.84;;;1.25;100.00
78373;BME280;67656;52.074;4.758;2023-04-25T23:14:36;102032.91;;;1.31;100.00
78373;BME280;67656;52.074;4.758;2023-04-25T23:19:37;102033.09;;;1.07;100.00
78373;BME280;67656;52.074;4.758;2023-04-25T23:24:37;102036.59;;;1.09;100.00
78373;BME280;67656;52.074;4.758;2023-04-25T23:29:37;102029.94;;;0.90;100.00
78373;BME280;67656;52.074;4.758;2023-04-25T23:34:38;102036.31;;;1.00;100.00
78373;BME280;67656;52.074;4.758;2023-04-25T23:39:46;102032.63;;;0.91;100.00
78373;BME280;67656;52.074;4.758;2023-04-25T23:44:46;102029.59;;;1.06;100.00
78373;BME280;67656;52.074;4.758;2023-04-25T23:49:46;102026.50;;;0.91;100.00
78373;BME280;67656;52.074;4.758;2023-04-25T23:54:47;102025.75;;;0.94;100.00
78373;BME280;67656;52.074;4.758;2023-04-25T23:59:47;102027.59;;;0.98;100.00
